Terminal Aerodrome Forecast
Issued by NWS

Home | Current Version | Previous Version | Text Only | Print | Product List | Glossary On
Versions: 1 2 3 4 5 6 7 8 9 10 11 12 13 14 15 16 17 18 19 20
685
FTUS46 KMTR 071128
TAFOAK
TAF
KOAK 071128Z 0712/0818 06003KT P6SM SCT200
     FM071700 10004KT P6SM SCT120 BKN150
     FM072000 12006KT P6SM VCSH SCT050 BKN060 OVC080
     FM072200 12006KT P6SM -RA BKN040 OVC060
      TEMPO 0801/0805 6SM RA BR BKN025 OVC040
     FM080500 13012G18KT P6SM -RA BKN025 OVC040
     FM081200 15018G24KT P6SM -RA BKN020 OVC035=

USA.gov is the U.S. government's official web portal to all federal, state and local government web resources and services.